Time,TemperatureF,DewpointF,PressureIn,WindDirection,WindDirectionDegrees,WindSpeedMPH,WindSpeedGustMPH,Humidity,HourlyPrecipIn,Conditions,Clouds,dailyrainin,SoftwareType,DateUTC
2013-08-24 00:13:00,86.0,67.0,29.61,ENE,78,1.0,4.0,53,0.00,,,0.00,,2013-08-24 05:13:00,
2013-08-24 00:23:00,86.0,67.0,29.61,NNE,13,0.0,7.0,53,0.00,,,0.00,,2013-08-24 05:23:00,
2013-08-24 00:43:00,86.0,67.0,29.61,ENE,65,0.0,2.0,53,0.00,,,0.00,,2013-08-24 05:43:00,
2013-08-24 00:53:00,85.0,67.0,29.62,East,79,0.0,3.0,55,0.00,,,0.00,,2013-08-24 05:53:00,
2013-08-24 01:12:00,85.0,68.0,29.61,NNE,26,0.0,4.0,56,0.00,,,0.00,,2013-08-24 06:12:00,
2013-08-24 01:22:00,84.0,67.0,29.62,ENE,76,0.0,2.0,57,0.00,,,0.00,,2013-08-24 06:22:00,
2013-08-24 01:42:00,84.0,67.0,29.62,ENE,70,0.0,2.0,57,0.00,,,0.00,,2013-08-24 06:42:00,
2013-08-24 01:52:00,83.0,67.0,29.61,ENE,65,0.0,1.0,59,0.00,,,0.00,,2013-08-24 06:52:00,
2013-08-24 02:12:00,83.0,68.0,29.61,NE,38,0.0,3.0,60,0.00,,,0.00,,2013-08-24 07:12:00,
2013-08-24 02:22:00,83.0,68.0,29.61,ENE,61,0.0,2.0,60,0.00,,,0.00,,2013-08-24 07:22:00,
2013-08-24 02:43:00,83.0,67.0,29.61,East,85,0.0,2.0,59,0.00,,,0.00,,2013-08-24 07:43:00,
2013-08-24 02:53:00,82.0,68.0,29.61,East,85,0.0,1.0,62,0.00,,,0.00,,2013-08-24 07:53:00,
2013-08-24 03:12:00,81.0,67.0,29.61,East,85,0.0,2.0,63,0.00,,,0.00,,2013-08-24 08:12:00,
2013-08-24 03:22:00,81.0,67.0,29.61,East,88,0.0,3.0,63,0.00,,,0.00,,2013-08-24 08:22:00,
2013-08-24 03:42:00,81.0,68.0,29.62,SE,131,0.0,3.0,64,0.00,,,0.00,,2013-08-24 08:42:00,
2013-08-24 03:52:00,81.0,68.0,29.62,SE,128,0.0,1.0,65,0.00,,,0.00,,2013-08-24 08:52:00,
2013-08-24 04:11:00,80.0,68.0,29.62,SE,128,0.0,0.0,67,0.00,,,0.00,,2013-08-24 09:11:00,
2013-08-24 04:22:00,79.0,68.0,29.62,SE,128,0.0,0.0,70,0.00,,,0.00,,2013-08-24 09:22:00,
2013-08-24 04:44:00,79.0,68.0,29.62,SE,128,0.0,0.0,70,0.00,,,0.00,,2013-08-24 09:44:00,
2013-08-24 04:53:00,79.0,68.0,29.62,SE,128,0.0,0.0,70,0.00,,,0.00,,2013-08-24 09:53:00,
2013-08-24 05:13:00,79.0,69.0,29.62,SE,128,0.0,0.0,71,0.00,,,0.00,,2013-08-24 10:13:00,
2013-08-24 05:23:00,78.0,68.0,29.63,East,96,0.0,2.0,71,0.00,,,0.00,,2013-08-24 10:23:00,
2013-08-24 05:42:00,79.0,69.0,29.63,East,94,0.0,2.0,71,0.00,,,0.00,,2013-08-24 10:42:00,
2013-08-24 05:53:00,78.0,68.0,29.63,East,94,0.0,0.0,72,0.00,,,0.00,,2013-08-24 10:53:00,
2013-08-24 06:12:00,78.0,69.0,29.64,East,94,0.0,0.0,73,0.00,,,0.00,,2013-08-24 11:12:00,
2013-08-24 06:22:00,77.0,68.0,29.64,East,94,0.0,0.0,74,0.00,,,0.00,,2013-08-24 11:22:00,
2013-08-24 06:42:00,77.0,68.0,29.64,East,94,0.0,0.0,74,0.00,,,0.00,,2013-08-24 11:42:00,
2013-08-24 06:52:00,77.0,68.0,29.64,East,94,0.0,1.0,75,0.00,,,0.00,,2013-08-24 11:52:00,
2013-08-24 07:12:00,77.0,68.0,29.65,East,94,0.0,1.0,75,0.00,,,0.00,,2013-08-24 12:12:00,
2013-08-24 07:21:00,76.0,68.0,29.65,East,94,0.0,1.0,76,0.00,,,0.00,,2013-08-24 12:21:00,
2013-08-24 07:42:00,77.0,68.0,29.65,East,98,0.0,3.0,74,0.00,,,0.00,,2013-08-24 12:42:00,
2013-08-24 07:52:00,77.0,68.0,29.66,ESE,105,0.0,2.0,75,0.00,,,0.00,,2013-08-24 12:52:00,
2013-08-24 08:11:00,77.0,68.0,29.66,ESE,117,0.0,2.0,75,0.00,,,0.00,,2013-08-24 13:11:00,
2013-08-24 08:22:00,78.0,69.0,29.67,SE,131,0.0,3.0,73,0.00,,,0.00,,2013-08-24 13:22:00,
2013-08-24 08:42:00,79.0,69.0,29.67,SE,126,1.0,4.0,72,0.00,,,0.00,,2013-08-24 13:42:00,
2013-08-24 08:52:00,79.0,69.0,29.67,SE,127,0.0,4.0,71,0.00,,,0.00,,2013-08-24 13:52:00,
2013-08-24 09:11:00,81.0,70.0,29.68,SE,130,0.0,3.0,69,0.00,,,0.00,,2013-08-24 14:11:00,
2013-08-24 09:22:00,81.0,69.0,29.68,SSE,157,0.0,4.0,68,0.00,,,0.00,,2013-08-24 14:22:00,
2013-08-24 09:42:00,83.0,70.0,29.68,ESE,103,0.0,4.0,66,0.00,,,0.00,,2013-08-24 14:42:00,
2013-08-24 09:52:00,84.0,71.0,29.69,South,178,0.0,4.0,65,0.00,,,0.00,,2013-08-24 14:52:00,
2013-08-24 10:12:00,84.0,70.0,29.69,SE,142,2.0,4.0,63,0.00,,,0.00,,2013-08-24 15:12:00,
2013-08-24 10:22:00,86.0,71.0,29.69,SSE,165,0.0,5.0,61,0.00,,,0.00,,2013-08-24 15:22:00,
2013-08-24 10:45:00,88.0,71.0,29.69,SSW,198,0.0,2.0,58,0.00,,,0.00,,2013-08-24 15:45:00,
2013-08-24 10:54:00,89.0,71.0,29.70,SE,140,1.0,3.0,56,0.00,,,0.00,,2013-08-24 15:54:00,
2013-08-24 11:13:00,89.0,71.0,29.70,ENE,78,0.0,4.0,55,0.00,,,0.00,,2013-08-24 16:13:00,
2013-08-24 11:23:00,91.0,71.0,29.70,SE,133,2.0,5.0,52,0.00,,,0.00,,2013-08-24 16:23:00,
2013-08-24 11:42:00,92.0,72.0,29.70,ENE,60,0.0,4.0,52,0.00,,,0.00,,2013-08-24 16:42:00,
2013-08-24 11:53:00,93.0,71.0,29.70,NE,50,1.0,5.0,49,0.00,,,0.00,,2013-08-24 16:53:00,
2013-08-24 12:12:00,94.0,71.0,29.70,SE,140,4.0,8.0,47,0.00,,,0.00,,2013-08-24 17:12:00,
2013-08-24 12:23:00,95.0,70.0,29.69,SE,130,0.0,6.0,44,0.00,,,0.00,,2013-08-24 17:23:00,
2013-08-24 12:42:00,95.0,70.0,29.69,NE,41,1.0,7.0,44,0.00,,,0.00,,2013-08-24 17:42:00,
2013-08-24 12:52:00,97.0,70.0,29.68,NE,43,2.0,8.0,42,0.00,,,0.00,,2013-08-24 17:52:00,
2013-08-24 13:13:00,96.0,70.0,29.68,NE,49,2.0,5.0,43,0.00,,,0.00,,2013-08-24 18:13:00,
2013-08-24 13:22:00,96.0,71.0,29.67,ESE,122,2.0,7.0,44,0.00,,,0.00,,2013-08-24 18:22:00,
2013-08-24 13:42:00,95.0,68.0,29.67,ENE,76,2.0,6.0,42,0.00,,,0.00,,2013-08-24 18:42:00,
2013-08-24 13:53:00,98.0,69.0,29.67,East,100,4.0,9.0,39,0.00,,,0.00,,2013-08-24 18:53:00,
2013-08-24 14:12:00,97.0,68.0,29.66,ESE,108,4.0,12.0,39,0.00,,,0.00,,2013-08-24 19:12:00,
2013-08-24 14:22:00,97.0,69.0,29.66,ENE,76,3.0,12.0,40,0.00,,,0.00,,2013-08-24 19:22:00,
2013-08-24 14:42:00,98.0,67.0,29.65,NE,51,3.0,10.0,37,0.00,,,0.00,,2013-08-24 19:42:00,
2013-08-24 14:52:00,99.0,67.0,29.65,ENE,65,2.0,14.0,36,0.00,,,0.00,,2013-08-24 19:52:00,
2013-08-24 15:11:00,99.0,67.0,29.65,ENE,73,3.0,15.0,36,0.00,,,0.00,,2013-08-24 20:11:00,
2013-08-24 15:22:00,99.0,66.0,29.64,East,88,3.0,9.0,35,0.00,,,0.00,,2013-08-24 20:22:00,
2013-08-24 15:42:00,99.0,66.0,29.64,ENE,65,3.0,13.0,35,0.00,,,0.00,,2013-08-24 20:42:00,
2013-08-24 15:52:00,99.0,65.0,29.63,East,101,3.0,10.0,33,0.00,,,0.00,,2013-08-24 20:52:00,
2013-08-24 16:11:00,100.0,67.0,29.62,East,82,5.0,15.0,34,0.00,,,0.00,,2013-08-24 21:11:00,
2013-08-24 16:22:00,100.0,65.0,29.61,ESE,117,5.0,14.0,32,0.00,,,0.00,,2013-08-24 21:22:00,
2013-08-24 16:43:00,100.0,66.0,29.61,NNW,330,2.0,9.0,33,0.00,,,0.00,,2013-08-24 21:43:00,
2013-08-24 16:54:00,100.0,61.0,29.61,ENE,61,6.0,12.0,28,0.00,,,0.00,,2013-08-24 21:54:00,
2013-08-24 17:14:00,100.0,66.0,29.61,ESE,109,3.0,15.0,33,0.00,,,0.00,,2013-08-24 22:14:00,
2013-08-24 17:24:00,99.0,65.0,29.60,NNE,28,2.0,10.0,33,0.00,,,0.00,,2013-08-24 22:24:00,
2013-08-24 17:43:00,100.0,66.0,29.60,East,98,2.0,10.0,33,0.00,,,0.00,,2013-08-24 22:43:00,
2013-08-24 17:53:00,99.0,63.0,29.60,East,86,4.0,10.0,31,0.00,,,0.00,,2013-08-24 22:53:00,
2013-08-24 18:12:00,98.0,62.0,29.60,ESE,121,4.0,10.0,31,0.00,,,0.00,,2013-08-24 23:12:00,
2013-08-24 18:22:00,99.0,64.0,29.59,ESE,116,4.0,8.0,32,0.00,,,0.00,,2013-08-24 23:22:00,
2013-08-24 18:43:00,98.0,65.0,29.60,East,95,4.0,11.0,34,0.00,,,0.00,,2013-08-24 23:43:00,
2013-08-24 18:53:00,97.0,64.0,29.59,NE,37,3.0,7.0,34,0.00,,,0.00,,2013-08-24 23:53:00,
2013-08-24 19:12:00,97.0,66.0,29.59,SE,128,1.0,9.0,36,0.00,,,0.00,,2013-08-25 00:12:00,
2013-08-24 19:22:00,97.0,65.0,29.59,East,94,4.0,8.0,35,0.00,,,0.00,,2013-08-25 00:22:00,
2013-08-24 19:42:00,95.0,67.0,29.60,East,80,6.0,16.0,40,0.00,,,0.00,,2013-08-25 00:42:00,
2013-08-24 19:52:00,93.0,66.0,29.59,ENE,68,7.0,13.0,41,0.00,,,0.00,,2013-08-25 00:52:00,
2013-08-24 20:11:00,93.0,67.0,29.60,East,91,4.0,11.0,43,0.00,,,0.00,,2013-08-25 01:11:00,
2013-08-24 20:22:00,92.0,68.0,29.60,ESE,122,4.0,10.0,45,0.00,,,0.00,,2013-08-25 01:22:00,
2013-08-24 20:42:00,91.0,67.0,29.61,East,94,3.0,11.0,46,0.00,,,0.00,,2013-08-25 01:42:00,
2013-08-24 20:52:00,90.0,68.0,29.62,SE,126,4.0,8.0,48,0.00,,,0.00,,2013-08-25 01:52:00,
2013-08-24 21:11:00,90.0,68.0,29.62,East,93,0.0,4.0,49,0.00,,,0.00,,2013-08-25 02:11:00,
2013-08-24 21:22:00,89.0,68.0,29.63,East,87,0.0,2.0,51,0.00,,,0.00,,2013-08-25 02:22:00,
2013-08-24 21:42:00,88.0,68.0,29.64,ESE,104,0.0,5.0,52,0.00,,,0.00,,2013-08-25 02:42:00,
2013-08-24 21:52:00,88.0,69.0,29.64,East,98,0.0,1.0,53,0.00,,,0.00,,2013-08-25 02:52:00,
2013-08-24 22:11:00,87.0,69.0,29.65,East,98,0.0,0.0,55,0.00,,,0.00,,2013-08-25 03:11:00,
2013-08-24 22:23:00,86.0,68.0,29.66,East,98,0.0,1.0,56,0.00,,,0.00,,2013-08-25 03:23:00,
2013-08-24 22:44:00,85.0,68.0,29.66,East,98,0.0,0.0,57,0.00,,,0.00,,2013-08-25 03:44:00,
2013-08-24 22:54:00,85.0,68.0,29.67,East,98,0.0,0.0,57,0.00,,,0.00,,2013-08-25 03:54:00,
2013-08-24 23:02:00,-999.0,-99.9,29.67,East,98,0.0,2.0,-999,-99.99,,,-99.99,,2013-08-25 04:02:00,
2013-08-24 23:14:00,85.0,69.0,29.67,East,98,0.0,2.0,58,0.00,,,0.00,,2013-08-25 04:14:00,
2013-08-24 23:25:00,86.0,69.0,29.67,SE,131,0.0,3.0,58,0.00,,,0.00,,2013-08-25 04:25:00,
2013-08-24 23:43:00,86.0,69.0,29.67,ESE,119,0.0,4.0,58,0.00,,,0.00,,2013-08-25 04:43:00,
2013-08-24 23:54:00,85.0,70.0,29.68,ESE,119,0.0,2.0,60,0.00,,,0.00,,2013-08-25 04:54:00,